sensor_id;sensor_type;location;lat;lon;timestamp;P1;durP1;ratioP1;P2;durP2;ratioP2
72639;SDS011;60683;51.730;8.762;2023-07-31T00:00:46;3.45;;;1.20;;
72639;SDS011;60683;51.730;8.762;2023-07-31T00:03:26;4.20;;;1.52;;
72639;SDS011;60683;51.730;8.762;2023-07-31T00:05:53;3.83;;;1.35;;
72639;SDS011;60683;51.730;8.762;2023-07-31T00:08:21;3.55;;;1.70;;
72639;SDS011;60683;51.730;8.762;2023-07-31T00:10:52;3.60;;;1.77;;
72639;SDS011;60683;51.730;8.762;2023-07-31T00:13:19;4.45;;;1.48;;
72639;SDS011;60683;51.730;8.762;2023-07-31T00:15:47;5.50;;;2.20;;
72639;SDS011;60683;51.730;8.762;2023-07-31T00:18:14;6.00;;;2.00;;
72639;SDS011;60683;51.730;8.762;2023-07-31T00:20:42;5.10;;;1.98;;
72639;SDS011;60683;51.730;8.762;2023-07-31T00:23:09;5.93;;;2.03;;
72639;SDS011;60683;51.730;8.762;2023-07-31T00:25:37;6.15;;;1.95;;
72639;SDS011;60683;51.730;8.762;2023-07-31T00:28:06;4.55;;;2.05;;
72639;SDS011;60683;51.730;8.762;2023-07-31T00:30:33;5.07;;;2.47;;
72639;SDS011;60683;51.730;8.762;2023-07-31T00:33:01;4.47;;;2.10;;
72639;SDS011;60683;51.730;8.762;2023-07-31T00:35:29;6.53;;;2.60;;
72639;SDS011;60683;51.730;8.762;2023-07-31T00:40:24;4.47;;;2.22;;
72639;SDS011;60683;51.730;8.762;2023-07-31T00:42:53;5.78;;;2.08;;
72639;SDS011;60683;51.730;8.762;2023-07-31T00:45:22;4.70;;;2.13;;
72639;SDS011;60683;51.730;8.762;2023-07-31T00:47:53;3.63;;;1.95;;
72639;SDS011;60683;51.730;8.762;2023-07-31T00:50:21;4.85;;;2.28;;
72639;SDS011;60683;51.730;8.762;2023-07-31T00:52:50;5.57;;;2.58;;
72639;SDS011;60683;51.730;8.762;2023-07-31T00:55:18;4.47;;;2.45;;
72639;SDS011;60683;51.730;8.762;2023-07-31T00:57:45;6.05;;;2.33;;
72639;SDS011;60683;51.730;8.762;2023-07-31T01:00:13;4.55;;;1.67;;
72639;SDS011;60683;51.730;8.762;2023-07-31T01:02:42;5.35;;;2.13;;
72639;SDS011;60683;51.730;8.762;2023-07-31T01:05:10;4.25;;;1.98;;
72639;SDS011;60683;51.730;8.762;2023-07-31T01:07:40;4.25;;;1.75;;
72639;SDS011;60683;51.730;8.762;2023-07-31T01:10:17;4.60;;;2.10;;
72639;SDS011;60683;51.730;8.762;2023-07-31T01:12:49;5.30;;;2.60;;
72639;SDS011;60683;51.730;8.762;2023-07-31T01:15:18;4.65;;;1.88;;
72639;SDS011;60683;51.730;8.762;2023-07-31T01:17:46;4.68;;;1.92;;
72639;SDS011;60683;51.730;8.762;2023-07-31T01:20:15;3.47;;;1.92;;
72639;SDS011;60683;51.730;8.762;2023-07-31T01:26:07;4.45;;;1.50;;
72639;SDS011;60683;51.730;8.762;2023-07-31T01:28:44;5.40;;;2.08;;
72639;SDS011;60683;51.730;8.762;2023-07-31T01:31:18;5.82;;;2.10;;
72639;SDS011;60683;51.730;8.762;2023-07-31T01:33:50;4.22;;;1.70;;
72639;SDS011;60683;51.730;8.762;2023-07-31T01:36:19;4.82;;;1.90;;
72639;SDS011;60683;51.730;8.762;2023-07-31T01:38:47;4.07;;;2.08;;
72639;SDS011;60683;51.730;8.762;2023-07-31T01:41:17;5.10;;;1.90;;
72639;SDS011;60683;51.730;8.762;2023-07-31T01:43:45;3.95;;;1.55;;
72639;SDS011;60683;51.730;8.762;2023-07-31T01:46:13;4.22;;;1.60;;
72639;SDS011;60683;51.730;8.762;2023-07-31T01:48:40;3.33;;;1.58;;
72639;SDS011;60683;51.730;8.762;2023-07-31T01:51:08;5.13;;;2.15;;
72639;SDS011;60683;51.730;8.762;2023-07-31T01:53:35;4.45;;;1.80;;
72639;SDS011;60683;51.730;8.762;2023-07-31T01:56:03;4.40;;;2.10;;
72639;SDS011;60683;51.730;8.762;2023-07-31T01:58:33;4.07;;;1.60;;
72639;SDS011;60683;51.730;8.762;2023-07-31T02:01:00;5.70;;;1.92;;
72639;SDS011;60683;51.730;8.762;2023-07-31T02:03:28;4.78;;;2.10;;
72639;SDS011;60683;51.730;8.762;2023-07-31T02:05:55;4.47;;;1.58;;
72639;SDS011;60683;51.730;8.762;2023-07-31T02:08:23;4.15;;;1.95;;
72639;SDS011;60683;51.730;8.762;2023-07-31T02:10:51;6.72;;;1.60;;
72639;SDS011;60683;51.730;8.762;2023-07-31T02:13:19;3.20;;;1.20;;
72639;SDS011;60683;51.730;8.762;2023-07-31T02:15:47;2.67;;;1.20;;
72639;SDS011;60683;51.730;8.762;2023-07-31T02:18:16;1.88;;;0.82;;
72639;SDS011;60683;51.730;8.762;2023-07-31T02:20:43;2.33;;;0.85;;
72639;SDS011;60683;51.730;8.762;2023-07-31T02:23:17;2.97;;;1.10;;
72639;SDS011;60683;51.730;8.762;2023-07-31T02:25:44;2.80;;;1.13;;
72639;SDS011;60683;51.730;8.762;2023-07-31T02:28:12;3.05;;;1.40;;
72639;SDS011;60683;51.730;8.762;2023-07-31T02:30:39;3.67;;;1.25;;
72639;SDS011;60683;51.730;8.762;2023-07-31T02:33:09;4.60;;;1.52;;
72639;SDS011;60683;51.730;8.762;2023-07-31T02:35:36;2.80;;;1.02;;
72639;SDS011;60683;51.730;8.762;2023-07-31T02:38:03;3.75;;;1.35;;
72639;SDS011;60683;51.730;8.762;2023-07-31T02:40:31;3.55;;;1.40;;
72639;SDS011;60683;51.730;8.762;2023-07-31T02:42:59;3.70;;;1.30;;
72639;SDS011;60683;51.730;8.762;2023-07-31T02:45:26;2.95;;;1.20;;
72639;SDS011;60683;51.730;8.762;2023-07-31T02:47:54;3.75;;;1.27;;
72639;SDS011;60683;51.730;8.762;2023-07-31T02:50:22;3.10;;;1.27;;
72639;SDS011;60683;51.730;8.762;2023-07-31T02:52:50;5.07;;;1.55;;
72639;SDS011;60683;51.730;8.762;2023-07-31T02:55:17;3.75;;;1.83;;
72639;SDS011;60683;51.730;8.762;2023-07-31T02:57:45;6.88;;;2.08;;
72639;SDS011;60683;51.730;8.762;2023-07-31T03:00:13;6.80;;;2.38;;
72639;SDS011;60683;51.730;8.762;2023-07-31T03:02:41;5.63;;;2.25;;
72639;SDS011;60683;51.730;8.762;2023-07-31T03:05:08;6.65;;;2.38;;
72639;SDS011;60683;51.730;8.762;2023-07-31T03:07:38;9.52;;;3.08;;
72639;SDS011;60683;51.730;8.762;2023-07-31T03:10:06;7.38;;;2.78;;
72639;SDS011;60683;51.730;8.762;2023-07-31T03:12:34;8.27;;;2.90;;
72639;SDS011;60683;51.730;8.762;2023-07-31T03:15:02;6.82;;;2.20;;
72639;SDS011;60683;51.730;8.762;2023-07-31T03:17:30;6.47;;;3.00;;
72639;SDS011;60683;51.730;8.762;2023-07-31T03:19:58;6.05;;;2.80;;
72639;SDS011;60683;51.730;8.762;2023-07-31T03:22:25;8.15;;;3.60;;
72639;SDS011;60683;51.730;8.762;2023-07-31T03:24:54;6.13;;;2.28;;
72639;SDS011;60683;51.730;8.762;2023-07-31T03:27:22;6.63;;;2.67;;
72639;SDS011;60683;51.730;8.762;2023-07-31T03:29:51;7.38;;;3.22;;
72639;SDS011;60683;51.730;8.762;2023-07-31T03:32:20;12.60;;;3.35;;
72639;SDS011;60683;51.730;8.762;2023-07-31T03:34:47;9.40;;;3.30;;
72639;SDS011;60683;51.730;8.762;2023-07-31T03:37:17;10.65;;;3.45;;
72639;SDS011;60683;51.730;8.762;2023-07-31T03:39:44;8.77;;;2.88;;
72639;SDS011;60683;51.730;8.762;2023-07-31T03:42:13;8.90;;;2.63;;
72639;SDS011;60683;51.730;8.762;2023-07-31T03:44:40;9.68;;;2.60;;
72639;SDS011;60683;51.730;8.762;2023-07-31T03:47:08;9.70;;;3.28;;
72639;SDS011;60683;51.730;8.762;2023-07-31T03:49:35;5.80;;;2.63;;
72639;SDS011;60683;51.730;8.762;2023-07-31T03:52:04;5.78;;;2.22;;
72639;SDS011;60683;51.730;8.762;2023-07-31T03:54:32;7.03;;;2.47;;
72639;SDS011;60683;51.730;8.762;2023-07-31T03:57:00;5.78;;;2.47;;
72639;SDS011;60683;51.730;8.762;2023-07-31T03:59:29;6.75;;;2.28;;
72639;SDS011;60683;51.730;8.762;2023-07-31T04:01:57;5.40;;;1.70;;
72639;SDS011;60683;51.730;8.762;2023-07-31T04:04:24;5.22;;;2.10;;
72639;SDS011;60683;51.730;8.762;2023-07-31T04:06:52;5.35;;;2.10;;
72639;SDS011;60683;51.730;8.762;2023-07-31T04:09:19;6.10;;;1.70;;
72639;SDS011;60683;51.730;8.762;2023-07-31T04:11:47;7.32;;;2.83;;
72639;SDS011;60683;51.730;8.762;2023-07-31T04:14:15;4.43;;;2.08;;
72639;SDS011;60683;51.730;8.762;2023-07-31T04:16:44;6.18;;;1.95;;
72639;SDS011;60683;51.730;8.762;2023-07-31T04:19:11;5.60;;;2.30;;
72639;SDS011;60683;51.730;8.762;2023-07-31T04:21:42;6.70;;;1.83;;
72639;SDS011;60683;51.730;8.762;2023-07-31T04:24:09;4.45;;;2.17;;
72639;SDS011;60683;51.730;8.762;2023-07-31T04:26:37;5.43;;;2.33;;
72639;SDS011;60683;51.730;8.762;2023-07-31T04:29:04;6.40;;;2.88;;
72639;SDS011;60683;51.730;8.762;2023-07-31T04:31:32;5.72;;;2.40;;
72639;SDS011;60683;51.730;8.762;2023-07-31T04:34:01;8.27;;;2.58;;
72639;SDS011;60683;51.730;8.762;2023-07-31T04:36:30;10.18;;;2.33;;
72639;SDS011;60683;51.730;8.762;2023-07-31T04:38:58;7.20;;;2.45;;
72639;SDS011;60683;51.730;8.762;2023-07-31T04:41:26;6.55;;;2.50;;
72639;SDS011;60683;51.730;8.762;2023-07-31T04:43:53;7.20;;;2.60;;
72639;SDS011;60683;51.730;8.762;2023-07-31T04:46:21;5.80;;;2.05;;
72639;SDS011;60683;51.730;8.762;2023-07-31T04:48:49;4.78;;;1.58;;
72639;SDS011;60683;51.730;8.762;2023-07-31T04:51:18;8.50;;;2.85;;
72639;SDS011;60683;51.730;8.762;2023-07-31T04:53:46;10.50;;;3.30;;
72639;SDS011;60683;51.730;8.762;2023-07-31T04:56:14;7.55;;;2.60;;
72639;SDS011;60683;51.730;8.762;2023-07-31T04:58:42;8.55;;;2.78;;
72639;SDS011;60683;51.730;8.762;2023-07-31T05:01:10;7.43;;;2.53;;
72639;SDS011;60683;51.730;8.762;2023-07-31T05:03:38;7.57;;;2.20;;
72639;SDS011;60683;51.730;8.762;2023-07-31T05:06:05;4.38;;;1.80;;
72639;SDS011;60683;51.730;8.762;2023-07-31T05:08:34;11.63;;;2.45;;
72639;SDS011;60683;51.730;8.762;2023-07-31T05:13:29;8.32;;;2.28;;
72639;SDS011;60683;51.730;8.762;2023-07-31T05:15:57;5.72;;;2.17;;
72639;SDS011;60683;51.730;8.762;2023-07-31T05:18:24;7.25;;;2.58;;
72639;SDS011;60683;51.730;8.762;2023-07-31T05:20:52;6.65;;;2.05;;
72639;SDS011;60683;51.730;8.762;2023-07-31T05:23:19;5.70;;;2.22;;
72639;SDS011;60683;51.730;8.762;2023-07-31T05:25:48;5.22;;;2.25;;
72639;SDS011;60683;51.730;8.762;2023-07-31T05:28:15;6.75;;;2.63;;
72639;SDS011;60683;51.730;8.762;2023-07-31T05:30:43;7.75;;;2.22;;
72639;SDS011;60683;51.730;8.762;2023-07-31T05:33:10;7.28;;;2.65;;
72639;SDS011;60683;51.730;8.762;2023-07-31T05:35:38;7.40;;;2.35;;
72639;SDS011;60683;51.730;8.762;2023-07-31T05:38:05;7.60;;;2.75;;
72639;SDS011;60683;51.730;8.762;2023-07-31T05:40:33;8.60;;;2.20;;
72639;SDS011;60683;51.730;8.762;2023-07-31T05:43:01;8.77;;;2.85;;
72639;SDS011;60683;51.730;8.762;2023-07-31T05:45:29;6.85;;;2.63;;
72639;SDS011;60683;51.730;8.762;2023-07-31T05:47:57;6.03;;;2.13;;
72639;SDS011;60683;51.730;8.762;2023-07-31T05:50:24;6.63;;;2.85;;
72639;SDS011;60683;51.730;8.762;2023-07-31T05:52:51;7.03;;;2.35;;
72639;SDS011;60683;51.730;8.762;2023-07-31T05:55:19;6.30;;;2.03;;
72639;SDS011;60683;51.730;8.762;2023-07-31T05:57:46;8.10;;;2.08;;
72639;SDS011;60683;51.730;8.762;2023-07-31T06:00:15;7.35;;;2.40;;
72639;SDS011;60683;51.730;8.762;2023-07-31T06:02:43;7.70;;;2.47;;
72639;SDS011;60683;51.730;8.762;2023-07-31T06:05:12;7.72;;;2.35;;
72639;SDS011;60683;51.730;8.762;2023-07-31T06:07:39;9.38;;;2.60;;
72639;SDS011;60683;51.730;8.762;2023-07-31T06:10:07;9.75;;;2.97;;
72639;SDS011;60683;51.730;8.762;2023-07-31T06:12:35;6.75;;;2.55;;
72639;SDS011;60683;51.730;8.762;2023-07-31T06:15:03;8.32;;;2.40;;
72639;SDS011;60683;51.730;8.762;2023-07-31T06:17:33;6.53;;;2.60;;
72639;SDS011;60683;51.730;8.762;2023-07-31T06:20:00;4.38;;;1.90;;
72639;SDS011;60683;51.730;8.762;2023-07-31T06:22:30;9.70;;;2.72;;
72639;SDS011;60683;51.730;8.762;2023-07-31T06:24:58;11.05;;;3.25;;
72639;SDS011;60683;51.730;8.762;2023-07-31T06:27:25;8.43;;;2.55;;
72639;SDS011;60683;51.730;8.762;2023-07-31T06:29:53;7.00;;;2.38;;
72639;SDS011;60683;51.730;8.762;2023-07-31T06:32:20;7.38;;;2.97;;
72639;SDS011;60683;51.730;8.762;2023-07-31T06:34:49;6.97;;;2.40;;
72639;SDS011;60683;51.730;8.762;2023-07-31T06:37:16;7.45;;;2.30;;
72639;SDS011;60683;51.730;8.762;2023-07-31T06:39:44;6.88;;;2.58;;
72639;SDS011;60683;51.730;8.762;2023-07-31T06:42:11;5.20;;;2.72;;
72639;SDS011;60683;51.730;8.762;2023-07-31T06:44:38;8.00;;;2.47;;
72639;SDS011;60683;51.730;8.762;2023-07-31T06:47:08;9.15;;;2.28;;
72639;SDS011;60683;51.730;8.762;2023-07-31T06:49:36;5.10;;;2.08;;
72639;SDS011;60683;51.730;8.762;2023-07-31T06:52:05;7.43;;;2.80;;
72639;SDS011;60683;51.730;8.762;2023-07-31T06:54:33;8.20;;;2.15;;
72639;SDS011;60683;51.730;8.762;2023-07-31T06:57:01;8.65;;;3.15;;
72639;SDS011;60683;51.730;8.762;2023-07-31T06:59:28;6.65;;;2.35;;
72639;SDS011;60683;51.730;8.762;2023-07-31T07:01:55;10.75;;;2.95;;
72639;SDS011;60683;51.730;8.762;2023-07-31T07:04:23;8.32;;;2.58;;
72639;SDS011;60683;51.730;8.762;2023-07-31T07:06:50;9.68;;;3.30;;
72639;SDS011;60683;51.730;8.762;2023-07-31T07:09:19;10.40;;;2.58;;
72639;SDS011;60683;51.730;8.762;2023-07-31T07:11:46;11.30;;;3.30;;
72639;SDS011;60683;51.730;8.762;2023-07-31T07:14:14;11.30;;;2.85;;
72639;SDS011;60683;51.730;8.762;2023-07-31T07:16:41;7.32;;;2.80;;
72639;SDS011;60683;51.730;8.762;2023-07-31T07:19:09;8.15;;;3.00;;
72639;SDS011;60683;51.730;8.762;2023-07-31T07:21:36;7.93;;;2.33;;
72639;SDS011;60683;51.730;8.762;2023-07-31T07:24:04;8.20;;;2.58;;
72639;SDS011;60683;51.730;8.762;2023-07-31T07:26:33;7.00;;;2.22;;
72639;SDS011;60683;51.730;8.762;2023-07-31T07:29:00;10.05;;;2.95;;
72639;SDS011;60683;51.730;8.762;2023-07-31T07:31:28;7.07;;;2.72;;
72639;SDS011;60683;51.730;8.762;2023-07-31T07:33:55;5.30;;;2.28;;
72639;SDS011;60683;51.730;8.762;2023-07-31T07:36:23;6.80;;;2.75;;
72639;SDS011;60683;51.730;8.762;2023-07-31T07:38:50;8.10;;;2.72;;
72639;SDS011;60683;51.730;8.762;2023-07-31T07:41:18;7.97;;;2.95;;
72639;SDS011;60683;51.730;8.762;2023-07-31T07:43:46;7.85;;;3.00;;
72639;SDS011;60683;51.730;8.762;2023-07-31T07:46:14;8.68;;;3.35;;
72639;SDS011;60683;51.730;8.762;2023-07-31T07:48:42;8.70;;;3.50;;
72639;SDS011;60683;51.730;8.762;2023-07-31T07:51:09;8.75;;;3.33;;
72639;SDS011;60683;51.730;8.762;2023-07-31T07:53:37;6.95;;;3.10;;
72639;SDS011;60683;51.730;8.762;2023-07-31T07:56:05;8.40;;;3.75;;
72639;SDS011;60683;51.730;8.762;2023-07-31T07:58:32;7.82;;;3.17;;
72639;SDS011;60683;51.730;8.762;2023-07-31T08:01:01;8.52;;;3.50;;
72639;SDS011;60683;51.730;8.762;2023-07-31T08:03:29;10.70;;;4.10;;
72639;SDS011;60683;51.730;8.762;2023-07-31T08:05:57;8.10;;;3.70;;
72639;SDS011;60683;51.730;8.762;2023-07-31T08:08:26;12.82;;;3.75;;
72639;SDS011;60683;51.730;8.762;2023-07-31T08:10:53;11.52;;;4.65;;
72639;SDS011;60683;51.730;8.762;2023-07-31T08:13:21;8.73;;;3.58;;
72639;SDS011;60683;51.730;8.762;2023-07-31T08:15:49;6.80;;;2.97;;
72639;SDS011;60683;51.730;8.762;2023-07-31T08:18:18;8.55;;;3.85;;
72639;SDS011;60683;51.730;8.762;2023-07-31T08:20:46;12.20;;;4.03;;
72639;SDS011;60683;51.730;8.762;2023-07-31T08:23:15;8.30;;;3.70;;
72639;SDS011;60683;51.730;8.762;2023-07-31T08:25:42;7.95;;;4.32;;
72639;SDS011;60683;51.730;8.762;2023-07-31T08:28:09;12.00;;;4.70;;
72639;SDS011;60683;51.730;8.762;2023-07-31T08:30:37;6.65;;;3.13;;
72639;SDS011;60683;51.730;8.762;2023-07-31T08:33:04;13.50;;;4.25;;
72639;SDS011;60683;51.730;8.762;2023-07-31T08:35:33;9.13;;;3.97;;
72639;SDS011;60683;51.730;8.762;2023-07-31T08:38:01;8.30;;;3.95;;
72639;SDS011;60683;51.730;8.762;2023-07-31T08:40:28;8.30;;;3.80;;
72639;SDS011;60683;51.730;8.762;2023-07-31T08:42:56;12.68;;;4.93;;
72639;SDS011;60683;51.730;8.762;2023-07-31T08:45:28;11.57;;;3.90;;
72639;SDS011;60683;51.730;8.762;2023-07-31T08:47:56;9.00;;;4.60;;
72639;SDS011;60683;51.730;8.762;2023-07-31T08:50:23;7.80;;;3.83;;
72639;SDS011;60683;51.730;8.762;2023-07-31T08:52:52;10.18;;;4.35;;
72639;SDS011;60683;51.730;8.762;2023-07-31T08:55:20;7.53;;;4.10;;
72639;SDS011;60683;51.730;8.762;2023-07-31T08:57:50;7.00;;;4.00;;
72639;SDS011;60683;51.730;8.762;2023-07-31T09:00:19;7.22;;;3.15;;
72639;SDS011;60683;51.730;8.762;2023-07-31T09:02:51;7.97;;;3.28;;
72639;SDS011;60683;51.730;8.762;2023-07-31T09:05:22;7.07;;;3.30;;
72639;SDS011;60683;51.730;8.762;2023-07-31T09:07:52;10.75;;;3.42;;
72639;SDS011;60683;51.730;8.762;2023-07-31T09:10:23;6.47;;;3.03;;
72639;SDS011;60683;51.730;8.762;2023-07-31T09:12:51;7.93;;;3.40;;
72639;SDS011;60683;51.730;8.762;2023-07-31T09:15:19;7.22;;;2.75;;
72639;SDS011;60683;51.730;8.762;2023-07-31T09:17:47;5.65;;;2.65;;
72639;SDS011;60683;51.730;8.762;2023-07-31T09:20:15;7.38;;;3.00;;
72639;SDS011;60683;51.730;8.762;2023-07-31T09:22:44;6.05;;;2.85;;
72639;SDS011;60683;51.730;8.762;2023-07-31T09:25:16;5.07;;;2.53;;
72639;SDS011;60683;51.730;8.762;2023-07-31T09:27:45;6.47;;;2.40;;
72639;SDS011;60683;51.730;8.762;2023-07-31T09:30:13;5.60;;;2.40;;
72639;SDS011;60683;51.730;8.762;2023-07-31T09:32:41;7.35;;;3.17;;
72639;SDS011;60683;51.730;8.762;2023-07-31T09:35:19;4.47;;;2.22;;
72639;SDS011;60683;51.730;8.762;2023-07-31T09:37:49;5.97;;;2.40;;
72639;SDS011;60683;51.730;8.762;2023-07-31T09:40:28;5.85;;;2.60;;
72639;SDS011;60683;51.730;8.762;2023-07-31T09:42:56;6.38;;;2.70;;
72639;SDS011;60683;51.730;8.762;2023-07-31T09:45:25;3.60;;;1.80;;
72639;SDS011;60683;51.730;8.762;2023-07-31T09:47:54;5.38;;;2.40;;
72639;SDS011;60683;51.730;8.762;2023-07-31T09:50:23;5.28;;;2.30;;
72639;SDS011;60683;51.730;8.762;2023-07-31T09:52:51;7.30;;;2.45;;
72639;SDS011;60683;51.730;8.762;2023-07-31T09:55:19;3.95;;;1.73;;
72639;SDS011;60683;51.730;8.762;2023-07-31T09:57:48;4.72;;;2.03;;
72639;SDS011;60683;51.730;8.762;2023-07-31T10:00:16;5.65;;;2.17;;
72639;SDS011;60683;51.730;8.762;2023-07-31T10:02:45;7.10;;;2.15;;
72639;SDS011;60683;51.730;8.762;2023-07-31T10:05:14;5.85;;;2.33;;
72639;SDS011;60683;51.730;8.762;2023-07-31T10:07:43;7.30;;;2.15;;
72639;SDS011;60683;51.730;8.762;2023-07-31T10:10:15;4.38;;;1.48;;
72639;SDS011;60683;51.730;8.762;2023-07-31T10:12:43;3.70;;;1.70;;
72639;SDS011;60683;51.730;8.762;2023-07-31T10:15:14;5.38;;;2.03;;
72639;SDS011;60683;51.730;8.762;2023-07-31T10:17:42;4.32;;;1.50;;
72639;SDS011;60683;51.730;8.762;2023-07-31T10:20:10;3.35;;;1.42;;
72639;SDS011;60683;51.730;8.762;2023-07-31T10:22:38;4.85;;;1.83;;
72639;SDS011;60683;51.730;8.762;2023-07-31T10:25:07;4.78;;;1.60;;
72639;SDS011;60683;51.730;8.762;2023-07-31T10:27:36;3.72;;;1.60;;
72639;SDS011;60683;51.730;8.762;2023-07-31T10:30:05;3.92;;;1.30;;
72639;SDS011;60683;51.730;8.762;2023-07-31T10:32:38;2.97;;;1.25;;
72639;SDS011;60683;51.730;8.762;2023-07-31T10:35:08;3.45;;;1.55;;
72639;SDS011;60683;51.730;8.762;2023-07-31T10:37:38;4.78;;;1.73;;
72639;SDS011;60683;51.730;8.762;2023-07-31T10:40:06;7.25;;;1.70;;
72639;SDS011;60683;51.730;8.762;2023-07-31T10:42:38;2.88;;;1.33;;
72639;SDS011;60683;51.730;8.762;2023-07-31T10:45:13;4.47;;;1.88;;
72639;SDS011;60683;51.730;8.762;2023-07-31T10:47:43;5.10;;;1.73;;
72639;SDS011;60683;51.730;8.762;2023-07-31T10:50:13;4.50;;;1.80;;
72639;SDS011;60683;51.730;8.762;2023-07-31T10:52:44;3.03;;;1.23;;
72639;SDS011;60683;51.730;8.762;2023-07-31T10:55:14;4.13;;;1.50;;
72639;SDS011;60683;51.730;8.762;2023-07-31T10:57:44;3.63;;;1.60;;
72639;SDS011;60683;51.730;8.762;2023-07-31T11:00:17;5.28;;;1.70;;
72639;SDS011;60683;51.730;8.762;2023-07-31T11:02:57;4.38;;;2.40;;
72639;SDS011;60683;51.730;8.762;2023-07-31T11:05:41;4.57;;;1.95;;
72639;SDS011;60683;51.730;8.762;2023-07-31T11:08:21;4.93;;;1.63;;
72639;SDS011;60683;51.730;8.762;2023-07-31T11:10:50;3.83;;;1.63;;
72639;SDS011;60683;51.730;8.762;2023-07-31T11:13:32;5.00;;;1.65;;
72639;SDS011;60683;51.730;8.762;2023-07-31T11:16:00;2.65;;;0.95;;
72639;SDS011;60683;51.730;8.762;2023-07-31T11:18:30;2.20;;;1.08;;
72639;SDS011;60683;51.730;8.762;2023-07-31T11:20:57;4.90;;;1.48;;
72639;SDS011;60683;51.730;8.762;2023-07-31T11:23:25;3.13;;;1.25;;
72639;SDS011;60683;51.730;8.762;2023-07-31T11:25:53;2.78;;;1.20;;
72639;SDS011;60683;51.730;8.762;2023-07-31T11:28:30;2.30;;;1.00;;
72639;SDS011;60683;51.730;8.762;2023-07-31T11:30:59;2.75;;;1.20;;
72639;SDS011;60683;51.730;8.762;2023-07-31T11:33:27;2.67;;;1.20;;
72639;SDS011;60683;51.730;8.762;2023-07-31T11:35:56;1.95;;;0.82;;
72639;SDS011;60683;51.730;8.762;2023-07-31T11:38:23;4.03;;;1.33;;
72639;SDS011;60683;51.730;8.762;2023-07-31T11:40:52;2.97;;;1.25;;
72639;SDS011;60683;51.730;8.762;2023-07-31T11:43:20;2.72;;;1.00;;
72639;SDS011;60683;51.730;8.762;2023-07-31T11:45:49;3.72;;;0.73;;
72639;SDS011;60683;51.730;8.762;2023-07-31T11:48:20;2.95;;;1.02;;
72639;SDS011;60683;51.730;8.762;2023-07-31T11:50:50;3.20;;;1.00;;
72639;SDS011;60683;51.730;8.762;2023-07-31T11:53:22;1.80;;;0.70;;
72639;SDS011;60683;51.730;8.762;2023-07-31T11:55:52;2.45;;;0.82;;
72639;SDS011;60683;51.730;8.762;2023-07-31T11:58:20;4.45;;;1.20;;
72639;SDS011;60683;51.730;8.762;2023-07-31T12:00:48;2.05;;;0.80;;
72639;SDS011;60683;51.730;8.762;2023-07-31T12:03:16;3.65;;;0.85;;
72639;SDS011;60683;51.730;8.762;2023-07-31T12:05:44;2.60;;;0.90;;
72639;SDS011;60683;51.730;8.762;2023-07-31T12:08:14;2.70;;;0.70;;
72639;SDS011;60683;51.730;8.762;2023-07-31T12:10:43;1.88;;;0.73;;
72639;SDS011;60683;51.730;8.762;2023-07-31T12:13:12;1.70;;;0.63;;
72639;SDS011;60683;51.730;8.762;2023-07-31T12:15:48;2.05;;;0.82;;
72639;SDS011;60683;51.730;8.762;2023-07-31T12:18:18;2.65;;;1.00;;
72639;SDS011;60683;51.730;8.762;2023-07-31T12:20:47;2.58;;;0.90;;
72639;SDS011;60683;51.730;8.762;2023-07-31T12:23:19;3.00;;;0.80;;
72639;SDS011;60683;51.730;8.762;2023-07-31T12:26:01;1.92;;;0.70;;
72639;SDS011;60683;51.730;8.762;2023-07-31T12:28:29;1.45;;;0.70;;
72639;SDS011;60683;51.730;8.762;2023-07-31T12:30:57;2.25;;;0.93;;
72639;SDS011;60683;51.730;8.762;2023-07-31T12:33:30;2.03;;;0.90;;
72639;SDS011;60683;51.730;8.762;2023-07-31T12:36:00;2.97;;;0.80;;
72639;SDS011;60683;51.730;8.762;2023-07-31T12:38:28;1.92;;;0.55;;
72639;SDS011;60683;51.730;8.762;2023-07-31T12:40:55;1.52;;;0.43;;
72639;SDS011;60683;51.730;8.762;2023-07-31T12:43:24;1.27;;;0.52;;
72639;SDS011;60683;51.730;8.762;2023-07-31T12:45:53;1.80;;;0.60;;
72639;SDS011;60683;51.730;8.762;2023-07-31T12:48:22;0.98;;;0.45;;
72639;SDS011;60683;51.730;8.762;2023-07-31T12:50:49;1.35;;;0.60;;
72639;SDS011;60683;51.730;8.762;2023-07-31T12:53:17;1.38;;;0.63;;
72639;SDS011;60683;51.730;8.762;2023-07-31T12:55:44;1.63;;;0.80;;
72639;SDS011;60683;51.730;8.762;2023-07-31T12:58:12;2.33;;;1.00;;
72639;SDS011;60683;51.730;8.762;2023-07-31T13:00:41;2.67;;;1.08;;
72639;SDS011;60683;51.730;8.762;2023-07-31T13:03:08;2.20;;;1.10;;
72639;SDS011;60683;51.730;8.762;2023-07-31T13:05:36;2.78;;;0.90;;
72639;SDS011;60683;51.730;8.762;2023-07-31T13:08:04;2.78;;;1.10;;
72639;SDS011;60683;51.730;8.762;2023-07-31T13:10:31;4.15;;;1.25;;
72639;SDS011;60683;51.730;8.762;2023-07-31T13:12:59;2.78;;;1.20;;
72639;SDS011;60683;51.730;8.762;2023-07-31T13:15:27;2.70;;;1.10;;
72639;SDS011;60683;51.730;8.762;2023-07-31T13:17:56;3.08;;;1.63;;
72639;SDS011;60683;51.730;8.762;2023-07-31T13:20:23;2.55;;;1.02;;
72639;SDS011;60683;51.730;8.762;2023-07-31T13:22:50;2.70;;;1.20;;
72639;SDS011;60683;51.730;8.762;2023-07-31T13:25:18;3.40;;;1.33;;
72639;SDS011;60683;51.730;8.762;2023-07-31T13:27:45;3.53;;;1.42;;
72639;SDS011;60683;51.730;8.762;2023-07-31T13:30:12;3.03;;;1.38;;
72639;SDS011;60683;51.730;8.762;2023-07-31T13:32:40;2.40;;;1.05;;
72639;SDS011;60683;51.730;8.762;2023-07-31T13:35:09;3.35;;;1.42;;
72639;SDS011;60683;51.730;8.762;2023-07-31T13:37:37;3.10;;;1.17;;
72639;SDS011;60683;51.730;8.762;2023-07-31T13:40:05;4.82;;;1.50;;
72639;SDS011;60683;51.730;8.762;2023-07-31T13:42:33;3.88;;;1.23;;
72639;SDS011;60683;51.730;8.762;2023-07-31T13:45:00;3.45;;;1.13;;
72639;SDS011;60683;51.730;8.762;2023-07-31T13:47:28;3.17;;;1.40;;
72639;SDS011;60683;51.730;8.762;2023-07-31T13:49:56;3.28;;;1.40;;
72639;SDS011;60683;51.730;8.762;2023-07-31T13:52:25;2.17;;;1.10;;
72639;SDS011;60683;51.730;8.762;2023-07-31T13:54:53;3.15;;;1.45;;
72639;SDS011;60683;51.730;8.762;2023-07-31T13:57:20;2.00;;;0.90;;
72639;SDS011;60683;51.730;8.762;2023-07-31T13:59:49;3.75;;;1.52;;
72639;SDS011;60683;51.730;8.762;2023-07-31T14:02:16;1.77;;;0.85;;
72639;SDS011;60683;51.730;8.762;2023-07-31T14:04:43;3.03;;;1.10;;
72639;SDS011;60683;51.730;8.762;2023-07-31T14:07:11;2.88;;;1.10;;
72639;SDS011;60683;51.730;8.762;2023-07-31T14:09:40;3.17;;;1.23;;
72639;SDS011;60683;51.730;8.762;2023-07-31T14:12:08;2.15;;;0.95;;
72639;SDS011;60683;51.730;8.762;2023-07-31T14:14:35;2.20;;;1.08;;
72639;SDS011;60683;51.730;8.762;2023-07-31T14:17:03;2.20;;;1.05;;
72639;SDS011;60683;51.730;8.762;2023-07-31T14:19:30;2.55;;;1.00;;
72639;SDS011;60683;51.730;8.762;2023-07-31T14:21:58;2.72;;;1.20;;
72639;SDS011;60683;51.730;8.762;2023-07-31T14:24:26;2.85;;;1.25;;
72639;SDS011;60683;51.730;8.762;2023-07-31T14:26:55;4.82;;;1.45;;
72639;SDS011;60683;51.730;8.762;2023-07-31T14:29:22;2.40;;;1.10;;
72639;SDS011;60683;51.730;8.762;2023-07-31T14:31:51;3.20;;;1.15;;
72639;SDS011;60683;51.730;8.762;2023-07-31T14:34:18;2.20;;;0.98;;
72639;SDS011;60683;51.730;8.762;2023-07-31T14:36:46;2.28;;;1.02;;
72639;SDS011;60683;51.730;8.762;2023-07-31T14:39:13;3.35;;;1.30;;
72639;SDS011;60683;51.730;8.762;2023-07-31T14:41:41;5.03;;;1.25;;
72639;SDS011;60683;51.730;8.762;2023-07-31T14:44:09;2.80;;;1.33;;
72639;SDS011;60683;51.730;8.762;2023-07-31T14:46:37;3.00;;;1.30;;
72639;SDS011;60683;51.730;8.762;2023-07-31T14:49:04;3.38;;;1.42;;
72639;SDS011;60683;51.730;8.762;2023-07-31T14:51:32;4.25;;;2.00;;
72639;SDS011;60683;51.730;8.762;2023-07-31T14:53:59;2.78;;;1.35;;
72639;SDS011;60683;51.730;8.762;2023-07-31T14:56:27;3.45;;;1.52;;
72639;SDS011;60683;51.730;8.762;2023-07-31T14:58:54;3.70;;;2.03;;
72639;SDS011;60683;51.730;8.762;2023-07-31T15:01:23;4.03;;;1.70;;
72639;SDS011;60683;51.730;8.762;2023-07-31T15:03:51;5.07;;;2.40;;